sensor_id;sensor_type;location;lat;lon;timestamp;P1;durP1;ratioP1;P2;durP2;ratioP2
61915;SDS011;47868;51.326;6.550;2023-11-19T00:00:44;4.68;;;4.05;;
61915;SDS011;47868;51.326;6.550;2023-11-19T00:03:10;4.68;;;4.20;;
61915;SDS011;47868;51.326;6.550;2023-11-19T00:05:38;4.78;;;3.97;;
61915;SDS011;47868;51.326;6.550;2023-11-19T00:08:04;4.95;;;4.20;;
61915;SDS011;47868;51.326;6.550;2023-11-19T00:10:31;5.75;;;3.67;;
61915;SDS011;47868;51.326;6.550;2023-11-19T00:12:57;4.28;;;3.70;;
61915;SDS011;47868;51.326;6.550;2023-11-19T00:15:23;5.47;;;4.22;;
61915;SDS011;47868;51.326;6.550;2023-11-19T00:17:50;7.65;;;4.20;;
61915;SDS011;47868;51.326;6.550;2023-11-19T00:20:19;4.60;;;4.20;;
61915;SDS011;47868;51.326;6.550;2023-11-19T00:22:47;4.75;;;4.28;;
61915;SDS011;47868;51.326;6.550;2023-11-19T00:25:13;6.43;;;4.45;;
61915;SDS011;47868;51.326;6.550;2023-11-19T00:27:39;5.75;;;4.30;;
61915;SDS011;47868;51.326;6.550;2023-11-19T00:30:06;4.97;;;4.57;;
61915;SDS011;47868;51.326;6.550;2023-11-19T00:32:33;4.55;;;4.10;;
61915;SDS011;47868;51.326;6.550;2023-11-19T00:34:59;6.53;;;4.60;;
61915;SDS011;47868;51.326;6.550;2023-11-19T00:37:26;4.57;;;4.18;;
61915;SDS011;47868;51.326;6.550;2023-11-19T00:39:52;7.45;;;4.43;;
61915;SDS011;47868;51.326;6.550;2023-11-19T00:42:18;6.10;;;4.63;;
61915;SDS011;47868;51.326;6.550;2023-11-19T00:44:44;5.78;;;4.85;;
61915;SDS011;47868;51.326;6.550;2023-11-19T00:47:10;5.30;;;4.80;;
61915;SDS011;47868;51.326;6.550;2023-11-19T00:49:36;5.50;;;4.85;;
61915;SDS011;47868;51.326;6.550;2023-11-19T00:52:02;5.40;;;4.20;;
61915;SDS011;47868;51.326;6.550;2023-11-19T00:54:28;5.82;;;4.40;;
61915;SDS011;47868;51.326;6.550;2023-11-19T00:56:54;4.45;;;3.95;;
61915;SDS011;47868;51.326;6.550;2023-11-19T00:59:20;8.10;;;4.50;;
61915;SDS011;47868;51.326;6.550;2023-11-19T01:01:46;4.40;;;4.00;;
61915;SDS011;47868;51.326;6.550;2023-11-19T01:04:13;5.43;;;3.85;;
61915;SDS011;47868;51.326;6.550;2023-11-19T01:06:39;4.30;;;4.00;;
61915;SDS011;47868;51.326;6.550;2023-11-19T01:09:07;4.30;;;3.90;;
61915;SDS011;47868;51.326;6.550;2023-11-19T01:11:34;4.13;;;3.83;;
61915;SDS011;47868;51.326;6.550;2023-11-19T01:14:00;3.72;;;3.38;;
61915;SDS011;47868;51.326;6.550;2023-11-19T01:16:26;3.85;;;3.40;;
61915;SDS011;47868;51.326;6.550;2023-11-19T01:18:52;3.30;;;3.10;;
61915;SDS011;47868;51.326;6.550;2023-11-19T01:21:18;3.33;;;3.03;;
61915;SDS011;47868;51.326;6.550;2023-11-19T01:23:44;4.38;;;3.50;;
61915;SDS011;47868;51.326;6.550;2023-11-19T01:26:11;3.72;;;3.33;;
61915;SDS011;47868;51.326;6.550;2023-11-19T01:28:38;6.75;;;3.15;;
61915;SDS011;47868;51.326;6.550;2023-11-19T01:31:11;3.47;;;3.13;;
61915;SDS011;47868;51.326;6.550;2023-11-19T01:33:38;4.47;;;3.65;;
61915;SDS011;47868;51.326;6.550;2023-11-19T01:36:05;3.58;;;3.28;;
61915;SDS011;47868;51.326;6.550;2023-11-19T01:38:31;7.07;;;3.72;;
61915;SDS011;47868;51.326;6.550;2023-11-19T01:40:57;4.13;;;3.80;;
61915;SDS011;47868;51.326;6.550;2023-11-19T01:43:39;4.07;;;3.15;;
61915;SDS011;47868;51.326;6.550;2023-11-19T01:46:08;4.82;;;4.00;;
61915;SDS011;47868;51.326;6.550;2023-11-19T01:48:39;5.13;;;3.20;;
61915;SDS011;47868;51.326;6.550;2023-11-19T01:51:06;6.60;;;3.80;;
61915;SDS011;47868;51.326;6.550;2023-11-19T01:53:32;7.72;;;5.68;;
61915;SDS011;47868;51.326;6.550;2023-11-19T01:55:59;7.95;;;3.63;;
61915;SDS011;47868;51.326;6.550;2023-11-19T01:58:26;6.38;;;3.05;;
61915;SDS011;47868;51.326;6.550;2023-11-19T02:00:54;4.53;;;3.00;;
61915;SDS011;47868;51.326;6.550;2023-11-19T02:03:20;9.60;;;3.15;;
61915;SDS011;47868;51.326;6.550;2023-11-19T02:05:47;8.75;;;2.90;;
61915;SDS011;47868;51.326;6.550;2023-11-19T02:08:14;4.70;;;2.63;;
61915;SDS011;47868;51.326;6.550;2023-11-19T02:10:40;5.40;;;2.88;;
61915;SDS011;47868;51.326;6.550;2023-11-19T02:13:06;5.10;;;2.65;;
61915;SDS011;47868;51.326;6.550;2023-11-19T02:15:32;9.90;;;3.05;;
61915;SDS011;47868;51.326;6.550;2023-11-19T02:18:21;5.43;;;2.58;;
61915;SDS011;47868;51.326;6.550;2023-11-19T02:20:47;9.15;;;2.92;;
61915;SDS011;47868;51.326;6.550;2023-11-19T02:23:14;7.57;;;3.10;;
61915;SDS011;47868;51.326;6.550;2023-11-19T02:25:40;5.72;;;2.92;;
61915;SDS011;47868;51.326;6.550;2023-11-19T02:28:06;7.47;;;2.97;;
61915;SDS011;47868;51.326;6.550;2023-11-19T02:30:33;8.60;;;3.15;;
61915;SDS011;47868;51.326;6.550;2023-11-19T02:32:59;6.15;;;3.15;;
61915;SDS011;47868;51.326;6.550;2023-11-19T02:35:30;9.82;;;2.95;;
61915;SDS011;47868;51.326;6.550;2023-11-19T02:37:57;10.40;;;3.30;;
61915;SDS011;47868;51.326;6.550;2023-11-19T02:40:24;10.68;;;3.15;;
61915;SDS011;47868;51.326;6.550;2023-11-19T02:42:50;7.95;;;3.60;;
61915;SDS011;47868;51.326;6.550;2023-11-19T02:45:16;12.23;;;3.92;;
61915;SDS011;47868;51.326;6.550;2023-11-19T02:47:43;11.13;;;3.72;;
61915;SDS011;47868;51.326;6.550;2023-11-19T02:50:12;13.60;;;3.58;;
61915;SDS011;47868;51.326;6.550;2023-11-19T02:52:41;10.43;;;3.80;;
61915;SDS011;47868;51.326;6.550;2023-11-19T02:55:11;18.55;;;4.38;;
61915;SDS011;47868;51.326;6.550;2023-11-19T02:57:40;17.00;;;4.10;;
61915;SDS011;47868;51.326;6.550;2023-11-19T03:00:15;11.13;;;4.15;;
61915;SDS011;47868;51.326;6.550;2023-11-19T03:02:42;11.40;;;3.83;;
61915;SDS011;47868;51.326;6.550;2023-11-19T03:05:13;10.32;;;3.83;;
61915;SDS011;47868;51.326;6.550;2023-11-19T03:07:42;14.50;;;4.35;;
61915;SDS011;47868;51.326;6.550;2023-11-19T03:10:09;18.10;;;4.35;;
61915;SDS011;47868;51.326;6.550;2023-11-19T03:12:38;15.13;;;4.18;;
61915;SDS011;47868;51.326;6.550;2023-11-19T03:15:04;15.68;;;4.50;;
61915;SDS011;47868;51.326;6.550;2023-11-19T03:17:31;18.77;;;3.83;;
61915;SDS011;47868;51.326;6.550;2023-11-19T03:19:57;14.13;;;3.75;;
61915;SDS011;47868;51.326;6.550;2023-11-19T03:22:23;13.70;;;4.10;;
61915;SDS011;47868;51.326;6.550;2023-11-19T03:24:50;17.63;;;4.40;;
61915;SDS011;47868;51.326;6.550;2023-11-19T03:27:16;18.70;;;4.78;;
61915;SDS011;47868;51.326;6.550;2023-11-19T03:29:42;18.08;;;4.05;;
61915;SDS011;47868;51.326;6.550;2023-11-19T03:32:08;15.52;;;4.25;;
61915;SDS011;47868;51.326;6.550;2023-11-19T03:34:34;12.82;;;4.25;;
61915;SDS011;47868;51.326;6.550;2023-11-19T03:37:00;23.05;;;5.07;;
61915;SDS011;47868;51.326;6.550;2023-11-19T03:39:28;15.27;;;4.85;;
61915;SDS011;47868;51.326;6.550;2023-11-19T03:41:54;17.77;;;4.50;;
61915;SDS011;47868;51.326;6.550;2023-11-19T03:44:20;17.50;;;4.32;;
61915;SDS011;47868;51.326;6.550;2023-11-19T03:46:46;16.50;;;4.20;;
61915;SDS011;47868;51.326;6.550;2023-11-19T03:49:12;16.80;;;4.40;;
61915;SDS011;47868;51.326;6.550;2023-11-19T03:51:38;15.80;;;4.72;;
61915;SDS011;47868;51.326;6.550;2023-11-19T03:54:05;24.45;;;4.82;;
61915;SDS011;47868;51.326;6.550;2023-11-19T03:56:32;25.92;;;4.90;;
61915;SDS011;47868;51.326;6.550;2023-11-19T03:58:58;15.07;;;4.30;;
61915;SDS011;47868;51.326;6.550;2023-11-19T04:01:24;20.42;;;4.82;;
61915;SDS011;47868;51.326;6.550;2023-11-19T04:03:50;26.00;;;5.57;;
61915;SDS011;47868;51.326;6.550;2023-11-19T04:06:16;32.13;;;5.35;;
61915;SDS011;47868;51.326;6.550;2023-11-19T04:08:42;20.50;;;4.40;;
61915;SDS011;47868;51.326;6.550;2023-11-19T04:11:08;25.08;;;5.15;;
61915;SDS011;47868;51.326;6.550;2023-11-19T04:13:34;27.23;;;5.05;;
61915;SDS011;47868;51.326;6.550;2023-11-19T04:16:00;20.70;;;4.93;;
61915;SDS011;47868;51.326;6.550;2023-11-19T04:18:26;14.82;;;4.78;;
61915;SDS011;47868;51.326;6.550;2023-11-19T04:20:52;19.08;;;4.93;;
61915;SDS011;47868;51.326;6.550;2023-11-19T04:23:18;25.75;;;5.25;;
61915;SDS011;47868;51.326;6.550;2023-11-19T04:25:45;25.63;;;5.57;;
61915;SDS011;47868;51.326;6.550;2023-11-19T04:28:11;23.67;;;5.18;;
61915;SDS011;47868;51.326;6.550;2023-11-19T04:30:37;20.80;;;5.45;;
61915;SDS011;47868;51.326;6.550;2023-11-19T04:33:03;22.75;;;5.10;;
61915;SDS011;47868;51.326;6.550;2023-11-19T04:35:29;23.85;;;5.03;;
61915;SDS011;47868;51.326;6.550;2023-11-19T04:37:55;23.30;;;5.07;;
61915;SDS011;47868;51.326;6.550;2023-11-19T04:40:22;23.75;;;5.55;;
61915;SDS011;47868;51.326;6.550;2023-11-19T04:42:48;28.17;;;5.53;;
61915;SDS011;47868;51.326;6.550;2023-11-19T04:45:14;25.42;;;5.45;;
61915;SDS011;47868;51.326;6.550;2023-11-19T04:47:41;28.58;;;5.35;;
61915;SDS011;47868;51.326;6.550;2023-11-19T04:50:07;18.98;;;4.57;;
61915;SDS011;47868;51.326;6.550;2023-11-19T04:52:37;31.27;;;5.97;;
61915;SDS011;47868;51.326;6.550;2023-11-19T04:55:05;21.02;;;5.13;;
61915;SDS011;47868;51.326;6.550;2023-11-19T04:57:31;25.33;;;4.97;;
61915;SDS011;47868;51.326;6.550;2023-11-19T04:59:57;21.80;;;5.22;;
61915;SDS011;47868;51.326;6.550;2023-11-19T05:02:24;22.50;;;5.40;;
61915;SDS011;47868;51.326;6.550;2023-11-19T05:04:50;26.02;;;5.60;;
61915;SDS011;47868;51.326;6.550;2023-11-19T05:07:16;19.98;;;5.55;;
61915;SDS011;47868;51.326;6.550;2023-11-19T05:09:42;24.00;;;5.53;;
61915;SDS011;47868;51.326;6.550;2023-11-19T05:12:08;17.02;;;4.80;;
61915;SDS011;47868;51.326;6.550;2023-11-19T05:14:37;22.75;;;5.00;;
61915;SDS011;47868;51.326;6.550;2023-11-19T05:17:03;26.15;;;5.68;;
61915;SDS011;47868;51.326;6.550;2023-11-19T05:19:29;21.30;;;4.75;;
61915;SDS011;47868;51.326;6.550;2023-11-19T05:21:58;28.23;;;6.07;;
61915;SDS011;47868;51.326;6.550;2023-11-19T05:24:24;24.42;;;5.72;;
61915;SDS011;47868;51.326;6.550;2023-11-19T05:26:51;32.08;;;5.28;;
61915;SDS011;47868;51.326;6.550;2023-11-19T05:29:17;22.92;;;4.97;;
61915;SDS011;47868;51.326;6.550;2023-11-19T05:31:43;29.50;;;5.75;;
61915;SDS011;47868;51.326;6.550;2023-11-19T05:34:09;21.73;;;6.00;;
61915;SDS011;47868;51.326;6.550;2023-11-19T05:36:36;24.20;;;5.15;;
61915;SDS011;47868;51.326;6.550;2023-11-19T05:39:02;26.95;;;6.07;;
61915;SDS011;47868;51.326;6.550;2023-11-19T05:41:29;23.88;;;5.75;;
61915;SDS011;47868;51.326;6.550;2023-11-19T05:43:55;24.23;;;5.38;;
61915;SDS011;47868;51.326;6.550;2023-11-19T05:46:21;18.98;;;4.97;;
61915;SDS011;47868;51.326;6.550;2023-11-19T05:48:47;22.88;;;5.25;;
61915;SDS011;47868;51.326;6.550;2023-11-19T05:51:14;23.92;;;6.00;;
61915;SDS011;47868;51.326;6.550;2023-11-19T05:53:40;18.67;;;5.28;;
61915;SDS011;47868;51.326;6.550;2023-11-19T05:56:06;24.15;;;5.07;;
61915;SDS011;47868;51.326;6.550;2023-11-19T05:58:34;26.25;;;5.10;;
61915;SDS011;47868;51.326;6.550;2023-11-19T06:01:01;29.50;;;6.18;;
61915;SDS011;47868;51.326;6.550;2023-11-19T06:03:28;28.17;;;5.22;;
61915;SDS011;47868;51.326;6.550;2023-11-19T06:05:54;28.38;;;5.80;;
61915;SDS011;47868;51.326;6.550;2023-11-19T06:08:20;26.10;;;4.85;;
61915;SDS011;47868;51.326;6.550;2023-11-19T06:10:46;23.13;;;5.68;;
61915;SDS011;47868;51.326;6.550;2023-11-19T06:13:14;30.40;;;6.00;;
61915;SDS011;47868;51.326;6.550;2023-11-19T06:15:44;26.15;;;5.97;;
61915;SDS011;47868;51.326;6.550;2023-11-19T06:18:10;18.95;;;5.35;;
61915;SDS011;47868;51.326;6.550;2023-11-19T06:20:40;24.13;;;5.50;;
61915;SDS011;47868;51.326;6.550;2023-11-19T06:23:06;28.67;;;5.53;;
61915;SDS011;47868;51.326;6.550;2023-11-19T06:25:32;20.58;;;5.72;;
61915;SDS011;47868;51.326;6.550;2023-11-19T06:28:00;29.15;;;5.80;;
61915;SDS011;47868;51.326;6.550;2023-11-19T06:30:26;23.13;;;5.18;;
61915;SDS011;47868;51.326;6.550;2023-11-19T06:32:53;24.13;;;5.40;;
61915;SDS011;47868;51.326;6.550;2023-11-19T06:35:19;29.38;;;6.05;;
61915;SDS011;47868;51.326;6.550;2023-11-19T06:37:45;22.10;;;5.15;;
61915;SDS011;47868;51.326;6.550;2023-11-19T06:40:11;27.38;;;5.97;;
61915;SDS011;47868;51.326;6.550;2023-11-19T06:42:38;24.65;;;5.68;;
61915;SDS011;47868;51.326;6.550;2023-11-19T06:45:04;29.13;;;5.07;;
61915;SDS011;47868;51.326;6.550;2023-11-19T06:47:31;23.23;;;5.93;;
61915;SDS011;47868;51.326;6.550;2023-11-19T06:49:57;19.85;;;5.20;;
61915;SDS011;47868;51.326;6.550;2023-11-19T06:52:23;27.33;;;5.55;;
61915;SDS011;47868;51.326;6.550;2023-11-19T06:54:50;29.00;;;5.38;;
61915;SDS011;47868;51.326;6.550;2023-11-19T06:57:16;24.50;;;5.03;;
61915;SDS011;47868;51.326;6.550;2023-11-19T06:59:42;27.05;;;4.97;;
61915;SDS011;47868;51.326;6.550;2023-11-19T07:02:09;22.65;;;5.82;;
61915;SDS011;47868;51.326;6.550;2023-11-19T07:04:35;29.83;;;6.07;;
61915;SDS011;47868;51.326;6.550;2023-11-19T07:07:01;27.75;;;5.45;;
61915;SDS011;47868;51.326;6.550;2023-11-19T07:09:27;27.50;;;5.55;;
61915;SDS011;47868;51.326;6.550;2023-11-19T07:11:53;23.75;;;5.55;;
61915;SDS011;47868;51.326;6.550;2023-11-19T07:14:19;29.98;;;6.30;;
61915;SDS011;47868;51.326;6.550;2023-11-19T07:16:46;25.83;;;5.90;;
61915;SDS011;47868;51.326;6.550;2023-11-19T07:19:12;23.02;;;5.22;;
61915;SDS011;47868;51.326;6.550;2023-11-19T07:21:41;27.00;;;6.28;;
61915;SDS011;47868;51.326;6.550;2023-11-19T07:24:09;28.42;;;5.68;;
61915;SDS011;47868;51.326;6.550;2023-11-19T07:26:35;24.25;;;5.75;;
61915;SDS011;47868;51.326;6.550;2023-11-19T07:29:02;25.00;;;6.05;;
61915;SDS011;47868;51.326;6.550;2023-11-19T07:31:28;25.80;;;5.78;;
61915;SDS011;47868;51.326;6.550;2023-11-19T07:33:54;23.98;;;5.15;;
61915;SDS011;47868;51.326;6.550;2023-11-19T07:36:20;23.30;;;6.03;;
61915;SDS011;47868;51.326;6.550;2023-11-19T07:38:46;28.05;;;6.35;;
61915;SDS011;47868;51.326;6.550;2023-11-19T07:41:12;30.92;;;5.75;;
61915;SDS011;47868;51.326;6.550;2023-11-19T07:43:39;27.33;;;6.35;;
61915;SDS011;47868;51.326;6.550;2023-11-19T07:46:12;32.53;;;6.38;;
61915;SDS011;47868;51.326;6.550;2023-11-19T07:48:39;18.92;;;5.15;;
61915;SDS011;47868;51.326;6.550;2023-11-19T07:51:07;30.40;;;6.35;;
61915;SDS011;47868;51.326;6.550;2023-11-19T07:53:33;27.75;;;6.68;;
61915;SDS011;47868;51.326;6.550;2023-11-19T07:55:59;28.10;;;6.28;;
61915;SDS011;47868;51.326;6.550;2023-11-19T07:58:26;33.83;;;6.70;;
61915;SDS011;47868;51.326;6.550;2023-11-19T08:00:52;31.25;;;7.03;;
61915;SDS011;47868;51.326;6.550;2023-11-19T08:03:18;27.52;;;5.90;;
61915;SDS011;47868;51.326;6.550;2023-11-19T08:05:44;28.45;;;6.03;;
61915;SDS011;47868;51.326;6.550;2023-11-19T08:08:11;29.27;;;6.55;;
61915;SDS011;47868;51.326;6.550;2023-11-19T08:10:37;23.52;;;5.45;;
61915;SDS011;47868;51.326;6.550;2023-11-19T08:13:04;27.50;;;6.15;;
61915;SDS011;47868;51.326;6.550;2023-11-19T08:15:31;30.38;;;5.85;;
61915;SDS011;47868;51.326;6.550;2023-11-19T08:17:57;29.95;;;6.07;;
61915;SDS011;47868;51.326;6.550;2023-11-19T08:20:23;23.35;;;5.75;;
61915;SDS011;47868;51.326;6.550;2023-11-19T08:22:49;31.50;;;6.72;;
61915;SDS011;47868;51.326;6.550;2023-11-19T08:25:15;32.70;;;5.95;;
61915;SDS011;47868;51.326;6.550;2023-11-19T08:27:41;29.58;;;6.63;;
61915;SDS011;47868;51.326;6.550;2023-11-19T08:30:08;33.10;;;6.30;;
61915;SDS011;47868;51.326;6.550;2023-11-19T08:32:34;29.70;;;6.82;;
61915;SDS011;47868;51.326;6.550;2023-11-19T08:35:00;21.40;;;5.93;;
61915;SDS011;47868;51.326;6.550;2023-11-19T08:37:26;24.98;;;5.60;;
61915;SDS011;47868;51.326;6.550;2023-11-19T08:39:53;24.42;;;5.88;;
61915;SDS011;47868;51.326;6.550;2023-11-19T08:42:19;27.00;;;6.05;;
61915;SDS011;47868;51.326;6.550;2023-11-19T08:44:48;25.17;;;5.95;;
61915;SDS011;47868;51.326;6.550;2023-11-19T08:47:15;24.48;;;5.65;;
61915;SDS011;47868;51.326;6.550;2023-11-19T08:49:43;28.65;;;6.65;;
61915;SDS011;47868;51.326;6.550;2023-11-19T08:52:09;24.42;;;6.00;;
61915;SDS011;47868;51.326;6.550;2023-11-19T08:54:35;22.38;;;5.20;;
61915;SDS011;47868;51.326;6.550;2023-11-19T08:57:02;28.33;;;5.97;;
61915;SDS011;47868;51.326;6.550;2023-11-19T08:59:28;24.80;;;6.50;;
61915;SDS011;47868;51.326;6.550;2023-11-19T09:01:54;28.88;;;5.60;;
61915;SDS011;47868;51.326;6.550;2023-11-19T09:04:21;26.25;;;5.97;;
61915;SDS011;47868;51.326;6.550;2023-11-19T09:06:47;30.15;;;7.15;;
61915;SDS011;47868;51.326;6.550;2023-11-19T09:09:14;27.15;;;6.45;;
61915;SDS011;47868;51.326;6.550;2023-11-19T09:11:40;25.88;;;6.05;;
61915;SDS011;47868;51.326;6.550;2023-11-19T09:14:07;29.42;;;7.03;;
61915;SDS011;47868;51.326;6.550;2023-11-19T09:16:33;21.73;;;5.97;;
61915;SDS011;47868;51.326;6.550;2023-11-19T09:18:59;24.30;;;6.40;;
61915;SDS011;47868;51.326;6.550;2023-11-19T09:21:27;23.17;;;6.10;;
61915;SDS011;47868;51.326;6.550;2023-11-19T09:23:54;28.52;;;7.13;;
61915;SDS011;47868;51.326;6.550;2023-11-19T09:26:20;23.23;;;5.82;;
61915;SDS011;47868;51.326;6.550;2023-11-19T09:28:46;31.83;;;6.50;;
61915;SDS011;47868;51.326;6.550;2023-11-19T09:31:13;24.27;;;5.82;;
61915;SDS011;47868;51.326;6.550;2023-11-19T09:33:39;22.40;;;6.03;;
61915;SDS011;47868;51.326;6.550;2023-11-19T09:36:05;29.67;;;6.63;;
61915;SDS011;47868;51.326;6.550;2023-11-19T09:38:31;28.27;;;5.88;;
61915;SDS011;47868;51.326;6.550;2023-11-19T09:40:58;27.52;;;6.20;;
61915;SDS011;47868;51.326;6.550;2023-11-19T09:43:33;35.58;;;7.03;;
61915;SDS011;47868;51.326;6.550;2023-11-19T09:45:59;32.58;;;6.47;;
61915;SDS011;47868;51.326;6.550;2023-11-19T09:48:32;33.38;;;7.25;;
61915;SDS011;47868;51.326;6.550;2023-11-19T09:50:59;30.10;;;7.10;;
61915;SDS011;47868;51.326;6.550;2023-11-19T09:53:26;27.38;;;5.93;;
61915;SDS011;47868;51.326;6.550;2023-11-19T09:55:52;28.05;;;6.45;;
61915;SDS011;47868;51.326;6.550;2023-11-19T09:58:18;19.80;;;6.18;;
61915;SDS011;47868;51.326;6.550;2023-11-19T10:00:44;34.50;;;7.10;;
61915;SDS011;47868;51.326;6.550;2023-11-19T10:03:11;25.83;;;6.30;;
61915;SDS011;47868;51.326;6.550;2023-11-19T10:05:39;26.38;;;5.95;;
61915;SDS011;47868;51.326;6.550;2023-11-19T10:08:06;29.15;;;6.80;;
61915;SDS011;47868;51.326;6.550;2023-11-19T10:10:36;25.25;;;6.55;;
61915;SDS011;47868;51.326;6.550;2023-11-19T10:13:02;29.95;;;6.85;;
61915;SDS011;47868;51.326;6.550;2023-11-19T10:15:28;31.88;;;6.53;;
61915;SDS011;47868;51.326;6.550;2023-11-19T10:17:59;32.08;;;5.65;;
61915;SDS011;47868;51.326;6.550;2023-11-19T10:20:25;31.15;;;7.10;;
61915;SDS011;47868;51.326;6.550;2023-11-19T10:22:54;27.88;;;6.72;;
61915;SDS011;47868;51.326;6.550;2023-11-19T10:25:24;27.08;;;6.10;;
61915;SDS011;47868;51.326;6.550;2023-11-19T10:27:51;21.88;;;6.15;;
61915;SDS011;47868;51.326;6.550;2023-11-19T10:30:20;27.75;;;6.43;;
61915;SDS011;47868;51.326;6.550;2023-11-19T10:33:01;26.40;;;6.57;;
61915;SDS011;47868;51.326;6.550;2023-11-19T10:35:28;28.60;;;6.55;;
61915;SDS011;47868;51.326;6.550;2023-11-19T10:37:54;21.65;;;5.90;;
61915;SDS011;47868;51.326;6.550;2023-11-19T10:40:20;25.77;;;6.13;;
61915;SDS011;47868;51.326;6.550;2023-11-19T10:42:46;29.67;;;7.18;;
61915;SDS011;47868;51.326;6.550;2023-11-19T10:45:30;29.85;;;5.93;;
61915;SDS011;47868;51.326;6.550;2023-11-19T10:47:56;23.52;;;5.70;;
61915;SDS011;47868;51.326;6.550;2023-11-19T10:50:22;22.83;;;5.63;;
61915;SDS011;47868;51.326;6.550;2023-11-19T10:52:50;30.48;;;6.35;;
61915;SDS011;47868;51.326;6.550;2023-11-19T10:55:18;30.27;;;6.60;;
61915;SDS011;47868;51.326;6.550;2023-11-19T10:57:46;27.95;;;5.90;;
61915;SDS011;47868;51.326;6.550;2023-11-19T11:00:15;25.02;;;5.63;;
61915;SDS011;47868;51.326;6.550;2023-11-19T11:02:45;23.80;;;5.15;;
61915;SDS011;47868;51.326;6.550;2023-11-19T11:05:14;21.88;;;5.40;;
61915;SDS011;47868;51.326;6.550;2023-11-19T11:07:41;26.35;;;6.10;;
61915;SDS011;47868;51.326;6.550;2023-11-19T11:10:08;19.10;;;5.53;;
61915;SDS011;47868;51.326;6.550;2023-11-19T11:12:36;25.95;;;5.40;;
61915;SDS011;47868;51.326;6.550;2023-11-19T11:15:06;22.92;;;5.03;;
61915;SDS011;47868;51.326;6.550;2023-11-19T11:17:33;22.75;;;5.25;;
61915;SDS011;47868;51.326;6.550;2023-11-19T11:19:59;19.05;;;4.97;;
61915;SDS011;47868;51.326;6.550;2023-11-19T11:22:25;25.77;;;5.70;;
61915;SDS011;47868;51.326;6.550;2023-11-19T11:38:21;24.80;;;6.20;;
61915;SDS011;47868;51.326;6.550;2023-11-19T11:41:14;22.90;;;6.05;;
61915;SDS011;47868;51.326;6.550;2023-11-19T11:43:52;20.85;;;4.88;;
61915;SDS011;47868;51.326;6.550;2023-11-19T11:49:00;20.85;;;6.30;;
61915;SDS011;47868;51.326;6.550;2023-11-19T11:54:11;24.30;;;5.35;;
61915;SDS011;47868;51.326;6.550;2023-11-19T11:56:37;24.02;;;5.90;;
61915;SDS011;47868;51.326;6.550;2023-11-19T11:59:07;17.63;;;5.70;;
61915;SDS011;47868;51.326;6.550;2023-11-19T12:01:33;21.92;;;5.40;;
61915;SDS011;47868;51.326;6.550;2023-11-19T12:04:00;20.75;;;5.13;;
61915;SDS011;47868;51.326;6.550;2023-11-19T12:06:27;21.58;;;5.15;;
61915;SDS011;47868;51.326;6.550;2023-11-19T12:08:57;19.38;;;5.25;;
61915;SDS011;47868;51.326;6.550;2023-11-19T12:11:25;14.18;;;3.95;;
61915;SDS011;47868;51.326;6.550;2023-11-19T12:13:54;24.15;;;5.03;;
61915;SDS011;47868;51.326;6.550;2023-11-19T12:16:21;19.27;;;4.97;;
61915;SDS011;47868;51.326;6.550;2023-11-19T12:18:47;18.27;;;4.70;;
61915;SDS011;47868;51.326;6.550;2023-11-19T12:21:29;18.50;;;4.30;;
61915;SDS011;47868;51.326;6.550;2023-11-19T12:23:55;18.33;;;4.32;;
61915;SDS011;47868;51.326;6.550;2023-11-19T12:26:34;28.13;;;5.55;;
61915;SDS011;47868;51.326;6.550;2023-11-19T12:29:00;22.98;;;4.93;;
61915;SDS011;47868;51.326;6.550;2023-11-19T12:31:28;16.25;;;4.63;;
61915;SDS011;47868;51.326;6.550;2023-11-19T12:33:55;22.70;;;4.88;;
61915;SDS011;47868;51.326;6.550;2023-11-19T12:36:21;14.95;;;4.75;;
61915;SDS011;47868;51.326;6.550;2023-11-19T12:38:47;16.40;;;4.03;;
61915;SDS011;47868;51.326;6.550;2023-11-19T12:41:14;14.55;;;4.22;;
61915;SDS011;47868;51.326;6.550;2023-11-19T12:43:45;20.05;;;4.68;;
61915;SDS011;47868;51.326;6.550;2023-11-19T12:46:23;16.00;;;4.55;;
61915;SDS011;47868;51.326;6.550;2023-11-19T12:48:51;19.85;;;5.07;;
61915;SDS011;47868;51.326;6.550;2023-11-19T12:51:18;21.45;;;5.88;;
61915;SDS011;47868;51.326;6.550;2023-11-19T12:53:51;15.43;;;4.40;;
61915;SDS011;47868;51.326;6.550;2023-11-19T12:56:19;20.77;;;5.15;;
61915;SDS011;47868;51.326;6.550;2023-11-19T12:58:46;13.68;;;4.88;;
61915;SDS011;47868;51.326;6.550;2023-11-19T13:01:19;18.30;;;5.22;;
61915;SDS011;47868;51.326;6.550;2023-11-19T13:03:45;22.60;;;5.03;;
61915;SDS011;47868;51.326;6.550;2023-11-19T13:06:12;17.08;;;5.25;;
61915;SDS011;47868;51.326;6.550;2023-11-19T13:08:44;16.98;;;4.80;;
61915;SDS011;47868;51.326;6.550;2023-11-19T13:11:10;16.55;;;5.18;;
61915;SDS011;47868;51.326;6.550;2023-11-19T13:16:22;20.33;;;5.15;;
61915;SDS011;47868;51.326;6.550;2023-11-19T13:18:48;17.63;;;4.97;;
61915;SDS011;47868;51.326;6.550;2023-11-19T13:21:14;21.90;;;4.95;;
61915;SDS011;47868;51.326;6.550;2023-11-19T13:23:40;25.35;;;5.10;;
61915;SDS011;47868;51.326;6.550;2023-11-19T13:26:06;22.95;;;4.57;;
61915;SDS011;47868;51.326;6.550;2023-11-19T13:28:32;18.90;;;5.55;;
61915;SDS011;47868;51.326;6.550;2023-11-19T13:30:58;17.05;;;5.25;;
61915;SDS011;47868;51.326;6.550;2023-11-19T13:33:24;15.23;;;4.05;;
61915;SDS011;47868;51.326;6.550;2023-11-19T13:35:51;15.32;;;4.32;;
61915;SDS011;47868;51.326;6.550;2023-11-19T13:38:18;17.73;;;5.00;;
61915;SDS011;47868;51.326;6.550;2023-11-19T13:40:44;21.45;;;4.85;;
61915;SDS011;47868;51.326;6.550;2023-11-19T13:43:10;19.75;;;5.10;;
61915;SDS011;47868;51.326;6.550;2023-11-19T13:45:36;16.52;;;4.78;;
61915;SDS011;47868;51.326;6.550;2023-11-19T13:48:02;17.98;;;4.32;;
61915;SDS011;47868;51.326;6.550;2023-11-19T13:50:28;22.48;;;4.32;;
61915;SDS011;47868;51.326;6.550;2023-11-19T13:52:54;18.27;;;4.85;;
61915;SDS011;47868;51.326;6.550;2023-11-19T13:55:20;26.30;;;5.53;;
61915;SDS011;47868;51.326;6.550;2023-11-19T13:57:47;20.48;;;5.07;;
61915;SDS011;47868;51.326;6.550;2023-11-19T14:00:14;14.27;;;4.35;;
61915;SDS011;47868;51.326;6.550;2023-11-19T14:02:48;24.35;;;5.53;;
61915;SDS011;47868;51.326;6.550;2023-11-19T14:05:15;20.13;;;5.18;;
61915;SDS011;47868;51.326;6.550;2023-11-19T14:07:44;19.25;;;5.82;;
61915;SDS011;47868;51.326;6.550;2023-11-19T14:10:13;17.13;;;5.50;;
61915;SDS011;47868;51.326;6.550;2023-11-19T14:12:39;22.92;;;5.25;;
61915;SDS011;47868;51.326;6.550;2023-11-19T14:15:06;22.10;;;4.97;;
61915;SDS011;47868;51.326;6.550;2023-11-19T14:17:33;16.83;;;4.93;;
61915;SDS011;47868;51.326;6.550;2023-11-19T14:19:59;17.60;;;5.30;;
61915;SDS011;47868;51.326;6.550;2023-11-19T14:22:25;29.85;;;6.07;;
61915;SDS011;47868;51.326;6.550;2023-11-19T14:24:52;18.88;;;4.75;;
61915;SDS011;47868;51.326;6.550;2023-11-19T14:27:18;22.83;;;5.32;;
61915;SDS011;47868;51.326;6.550;2023-11-19T14:29:44;17.70;;;5.10;;
61915;SDS011;47868;51.326;6.550;2023-11-19T14:32:11;20.60;;;5.90;;
61915;SDS011;47868;51.326;6.550;2023-11-19T14:34:37;20.80;;;5.55;;
61915;SDS011;47868;51.326;6.550;2023-11-19T14:37:03;22.15;;;5.40;;
61915;SDS011;47868;51.326;6.550;2023-11-19T14:39:29;29.00;;;5.35;;
61915;SDS011;47868;51.326;6.550;2023-11-19T14:41:56;21.85;;;4.88;;
61915;SDS011;47868;51.326;6.550;2023-11-19T14:44:29;16.23;;;4.70;;
61915;SDS011;47868;51.326;6.550;2023-11-19T14:46:55;18.92;;;4.70;;
61915;SDS011;47868;51.326;6.550;2023-11-19T14:49:22;17.48;;;4.82;;
61915;SDS011;47868;51.326;6.550;2023-11-19T14:51:49;17.52;;;4.75;;
61915;SDS011;47868;51.326;6.550;2023-11-19T14:54:14;19.80;;;5.30;;
61915;SDS011;47868;51.326;6.550;2023-11-19T14:56:41;26.48;;;5.30;;